createdAt,value
2022-08-19T00:01:53.799Z,19.70
2022-08-19T00:04:26.172Z,20.70
2022-08-19T00:06:54.919Z,21.40
2022-08-19T00:09:24.392Z,20.30
2022-08-19T00:11:52.990Z,22.43
2022-08-19T00:14:22.698Z,22.27
2022-08-19T00:16:52.345Z,22.73
2022-08-19T00:19:20.190Z,22.87
2022-08-19T00:21:49.428Z,23.17
2022-08-19T00:24:17.553Z,23.53
2022-08-19T00:26:46.233Z,23.27
2022-08-19T00:29:16.398Z,23.40
2022-08-19T00:31:44.952Z,25.10
2022-08-19T00:34:13.434Z,25.23
2022-08-19T00:36:41.937Z,25.10
2022-08-19T00:39:12.046Z,26.23
2022-08-19T00:41:40.115Z,25.37
2022-08-19T00:44:11.161Z,26.53
2022-08-19T00:46:41.074Z,26.53
2022-08-19T00:49:15.350Z,27.13
2022-08-19T00:51:44.366Z,27.47
2022-08-19T00:54:14.134Z,28.50
2022-08-19T00:56:42.879Z,29.10
2022-08-19T00:59:11.652Z,29.57
2022-08-19T01:01:40.748Z,30.67
2022-08-19T01:04:09.364Z,30.63
2022-08-19T01:06:39.195Z,30.13
2022-08-19T01:09:07.790Z,30.50
2022-08-19T01:11:41.422Z,29.70
2022-08-19T01:14:10.135Z,30.50
2022-08-19T01:16:41.096Z,30.57
2022-08-19T01:19:15.253Z,30.47
2022-08-19T01:21:49.939Z,31.23
2022-08-19T01:24:19.221Z,32.30
2022-08-19T01:26:47.962Z,32.57
2022-08-19T01:29:17.134Z,32.57
2022-08-19T01:31:44.914Z,32.47
2022-08-19T01:34:12.774Z,33.87
2022-08-19T01:36:46.702Z,33.07
2022-08-19T01:39:18.123Z,32.47
2022-08-19T01:41:47.339Z,34.03
2022-08-19T01:44:19.351Z,31.90
2022-08-19T01:46:49.070Z,33.07
2022-08-19T01:49:18.586Z,32.03
2022-08-19T01:51:46.633Z,32.30
2022-08-19T01:54:23.383Z,33.00
2022-08-19T01:57:02.049Z,34.73
2022-08-19T01:59:30.381Z,33.30
2022-08-19T02:01:58.248Z,32.40
2022-08-19T02:04:26.481Z,31.77
2022-08-19T02:06:54.365Z,32.47
2022-08-19T02:09:22.273Z,31.63
2022-08-19T02:11:50.304Z,31.07
2022-08-19T02:14:19.510Z,31.67
2022-08-19T02:16:47.332Z,29.70
2022-08-19T02:19:15.196Z,29.53
2022-08-19T02:21:44.486Z,30.20
2022-08-19T02:24:13.123Z,29.80
2022-08-19T02:26:41.112Z,29.57
2022-08-19T02:29:09.804Z,28.23
2022-08-19T02:31:38.918Z,29.67
2022-08-19T02:34:06.735Z,27.70
2022-08-19T02:36:34.573Z,28.43
2022-08-19T02:39:01.621Z,27.10
2022-08-19T02:41:31.732Z,28.03
2022-08-19T02:44:28.732Z,28.17
2022-08-19T02:46:52.576Z,27.33
2022-08-19T02:49:21.405Z,27.83
2022-08-19T02:51:49.551Z,26.87
2022-08-19T02:54:18.276Z,28.03
2022-08-19T02:56:47.378Z,28.63
2022-08-19T02:59:15.594Z,28.60
2022-08-19T03:01:44.101Z,28.70
2022-08-19T03:04:15.232Z,28.67
2022-08-19T03:06:45.977Z,30.10
2022-08-19T03:09:14.368Z,28.37
2022-08-19T03:11:42.295Z,30.63
2022-08-19T03:14:11.817Z,31.00
2022-08-19T03:16:44.812Z,29.93
2022-08-19T03:19:14.806Z,30.00
2022-08-19T03:21:45.481Z,30.07
2022-08-19T03:24:14.459Z,30.60
2022-08-19T03:26:43.358Z,30.60
2022-08-19T03:29:12.037Z,30.00
2022-08-19T03:31:52.316Z,29.47
2022-08-19T03:34:27.129Z,28.40
2022-08-19T03:36:56.830Z,28.97
2022-08-19T03:39:26.367Z,29.13
2022-08-19T03:42:33.031Z,29.13
2022-08-19T03:44:46.579Z,27.23
2022-08-19T03:47:17.433Z,28.43
2022-08-19T03:49:47.219Z,27.33
2022-08-19T03:52:16.488Z,30.10
2022-08-19T03:54:44.295Z,28.67
2022-08-19T03:57:12.465Z,29.30
2022-08-19T03:59:40.380Z,26.80
2022-08-19T04:02:11.058Z,28.13
2022-08-19T04:04:40.204Z,28.80
2022-08-19T04:07:10.308Z,28.37
2022-08-19T04:09:38.518Z,27.13
2022-08-19T04:12:07.520Z,28.50
2022-08-19T04:14:36.519Z,27.67
2022-08-19T04:17:06.302Z,28.27
2022-08-19T04:19:34.982Z,26.07
2022-08-19T04:22:03.158Z,28.17
2022-08-19T04:24:32.991Z,28.13
2022-08-19T04:27:02.977Z,26.93
2022-08-19T04:29:31.520Z,26.17
2022-08-19T04:32:00.428Z,26.73
2022-08-19T04:34:37.498Z,26.30
2022-08-19T04:37:25.595Z,26.17
2022-08-19T04:40:12.571Z,26.13
2022-08-19T04:42:40.421Z,26.97
2022-08-19T04:45:12.264Z,27.20
2022-08-19T04:47:47.890Z,27.47
2022-08-19T04:50:20.824Z,27.00
2022-08-19T04:52:48.796Z,26.20
2022-08-19T04:55:18.873Z,27.00
2022-08-19T04:57:46.754Z,27.30
2022-08-19T05:00:15.157Z,27.90
2022-08-19T05:02:43.191Z,27.30
2022-08-19T05:05:11.036Z,27.80
2022-08-19T05:07:39.061Z,27.23
2022-08-19T05:10:08.203Z,27.23
2022-08-19T05:12:37.742Z,27.90
2022-08-19T05:15:07.888Z,27.00
2022-08-19T05:17:38.735Z,26.57
2022-08-19T05:20:26.234Z,29.03
2022-08-19T05:22:54.327Z,27.53
2022-08-19T05:25:23.326Z,26.50
2022-08-19T05:27:52.601Z,26.63
2022-08-19T05:30:42.193Z,26.27
2022-08-19T05:33:10.006Z,26.57
2022-08-19T05:35:38.273Z,27.80
2022-08-19T05:38:07.659Z,26.00
2022-08-19T05:40:36.975Z,27.63
2022-08-19T05:43:08.312Z,26.20
2022-08-19T05:45:42.430Z,26.53
2022-08-19T05:48:12.139Z,27.60
2022-08-19T05:50:40.917Z,26.73
2022-08-19T05:53:09.681Z,28.27
2022-08-19T05:55:39.075Z,29.03
2022-08-19T05:58:08.894Z,29.10
2022-08-19T06:00:36.940Z,28.27
2022-08-19T06:03:12.470Z,28.40
2022-08-19T06:05:49.728Z,26.77
2022-08-19T06:08:34.335Z,28.90
2022-08-19T06:11:16.860Z,28.23
2022-08-19T06:13:51.427Z,27.83
2022-08-19T06:16:23.166Z,27.50
2022-08-19T06:18:53.342Z,29.50
2022-08-19T06:21:22.097Z,28.57
2022-08-19T06:23:51.930Z,29.47
2022-08-19T06:26:21.104Z,30.63
2022-08-19T06:28:51.277Z,28.33
2022-08-19T06:31:22.269Z,27.27
2022-08-19T06:33:51.152Z,29.33
2022-08-19T06:36:21.873Z,27.80
2022-08-19T06:38:53.802Z,28.47
2022-08-19T06:41:21.923Z,28.50
2022-08-19T06:43:52.569Z,27.97
2022-08-19T06:46:22.481Z,27.93
2022-08-19T06:48:50.780Z,28.07
2022-08-19T06:51:20.453Z,29.00
2022-08-19T06:56:21.850Z,27.90
2022-08-19T06:58:52.682Z,28.23
2022-08-19T07:01:21.573Z,26.37
2022-08-19T07:03:49.367Z,25.83
2022-08-19T07:06:43.095Z,26.60
2022-08-19T07:09:11.942Z,26.67
2022-08-19T07:11:40.295Z,26.67
2022-08-19T07:14:19.571Z,28.37
2022-08-19T07:16:49.697Z,26.67
2022-08-19T07:19:18.958Z,28.37
2022-08-19T07:21:51.932Z,28.47
2022-08-19T07:24:20.942Z,28.03
2022-08-19T07:26:51.873Z,27.87
2022-08-19T07:29:24.122Z,28.20
2022-08-19T07:31:55.823Z,28.30
2022-08-19T07:34:24.686Z,28.17
2022-08-19T07:36:52.944Z,27.93
2022-08-19T07:39:23.658Z,28.30
2022-08-19T07:41:52.260Z,28.97
2022-08-19T07:44:22.207Z,29.27
2022-08-19T07:46:53.339Z,27.90
2022-08-19T07:49:22.405Z,26.10
2022-08-19T07:51:52.207Z,28.20
2022-08-19T07:54:21.488Z,28.47
2022-08-19T07:56:50.400Z,28.07
2022-08-19T07:59:23.192Z,28.37
2022-08-19T08:01:51.363Z,28.67
2022-08-19T08:04:37.614Z,26.97
2022-08-19T08:07:23.833Z,26.57
2022-08-19T08:09:51.818Z,26.80
2022-08-19T08:12:34.153Z,27.50
2022-08-19T08:15:08.824Z,26.30
2022-08-19T08:17:49.409Z,26.77
2022-08-19T08:20:20.016Z,27.23
2022-08-19T08:23:06.463Z,27.80
2022-08-19T08:25:36.411Z,27.63
2022-08-19T08:28:04.991Z,25.40
2022-08-19T08:30:36.681Z,26.57
2022-08-19T08:33:05.383Z,26.57
2022-08-19T08:35:34.273Z,26.30
2022-08-19T08:38:04.558Z,25.47
2022-08-19T08:40:40.172Z,26.37
2022-08-19T08:43:11.976Z,25.53
2022-08-19T08:45:53.411Z,26.30
2022-08-19T08:48:26.488Z,26.27
2022-08-19T08:50:56.617Z,26.70
2022-08-19T08:53:29.581Z,26.47
2022-08-19T08:55:57.776Z,27.63
2022-08-19T08:58:31.649Z,26.80
2022-08-19T09:01:00.904Z,27.27
2022-08-19T09:03:31.495Z,27.67
2022-08-19T09:06:05.040Z,27.13
2022-08-19T09:08:45.910Z,26.67
2022-08-19T09:11:42.555Z,26.93
2022-08-19T09:14:47.455Z,26.33
2022-08-19T09:17:12.415Z,26.80
2022-08-19T09:19:51.773Z,27.63
2022-08-19T09:22:25.958Z,27.73
2022-08-19T09:24:55.537Z,27.07
2022-08-19T09:27:42.368Z,27.73
2022-08-19T09:30:16.264Z,26.47
2022-08-19T09:32:46.585Z,27.60
2022-08-19T09:35:16.097Z,27.13
2022-08-19T09:37:44.871Z,26.53
2022-08-19T09:40:14.280Z,26.83
2022-08-19T09:42:49.586Z,27.47
2022-08-19T09:45:22.853Z,28.30
2022-08-19T09:47:54.088Z,28.43
2022-08-19T09:50:24.258Z,28.00
2022-08-19T09:52:55.603Z,26.33
2022-08-19T09:55:31.208Z,25.97
2022-08-19T09:58:03.223Z,27.80
2022-08-19T10:00:32.594Z,27.63
2022-08-19T10:03:01.743Z,30.17
2022-08-19T10:05:54.466Z,29.80
2022-08-19T10:08:27.241Z,29.17
2022-08-19T10:10:56.484Z,30.93
2022-08-19T10:13:29.877Z,28.83
2022-08-19T10:16:03.816Z,30.37
2022-08-19T10:18:35.072Z,29.67
2022-08-19T10:21:11.865Z,29.23
2022-08-19T10:23:41.413Z,30.03
2022-08-19T10:26:09.233Z,30.47
2022-08-19T10:28:39.100Z,28.83
2022-08-19T10:31:08.289Z,29.90
2022-08-19T10:33:42.594Z,29.57
2022-08-19T10:36:24.478Z,29.43
2022-08-19T10:38:56.982Z,28.93
2022-08-19T10:41:28.445Z,28.47
2022-08-19T10:43:58.857Z,29.03
2022-08-19T10:46:33.675Z,28.47
2022-08-19T10:49:05.226Z,26.23
2022-08-19T10:51:51.234Z,26.70
2022-08-19T10:54:29.545Z,28.03
2022-08-19T10:57:00.133Z,28.10
2022-08-19T10:59:35.251Z,27.57
2022-08-19T11:02:06.001Z,28.43
2022-08-19T11:04:35.789Z,28.03
2022-08-19T11:07:04.529Z,26.90
2022-08-19T11:09:34.242Z,27.53
2022-08-19T11:12:02.789Z,28.93
2022-08-19T11:14:34.683Z,29.10
2022-08-19T11:17:03.416Z,27.87
2022-08-19T11:19:31.335Z,28.33
2022-08-19T11:22:03.649Z,28.37
2022-08-19T11:24:33.626Z,28.50
2022-08-19T11:27:07.032Z,27.20
2022-08-19T11:29:35.670Z,28.90
2022-08-19T11:32:07.278Z,28.23
2022-08-19T11:34:36.235Z,27.73
2022-08-19T11:37:06.671Z,27.23
2022-08-19T11:39:36.378Z,27.20
2022-08-19T11:42:26.874Z,27.70
2022-08-19T11:44:55.164Z,27.13
2022-08-19T11:47:23.070Z,28.13
2022-08-19T11:49:50.873Z,26.83
2022-08-19T11:52:20.563Z,26.30
2022-08-19T11:54:48.481Z,26.67
2022-08-19T11:57:17.842Z,25.93
2022-08-19T11:59:51.195Z,26.87
2022-08-19T12:02:19.977Z,26.40
2022-08-19T12:04:48.271Z,25.83
2022-08-19T12:07:16.275Z,25.13
2022-08-19T12:09:45.940Z,24.90
2022-08-19T12:12:16.684Z,27.00
2022-08-19T12:14:45.368Z,26.03
2022-08-19T12:17:14.407Z,27.57
2022-08-19T12:19:42.298Z,26.03
2022-08-19T12:22:10.094Z,26.27
2022-08-19T12:24:37.862Z,25.77
2022-08-19T12:27:12.876Z,27.07
2022-08-19T12:29:42.383Z,26.27
2022-08-19T12:32:10.474Z,26.90
2022-08-19T12:34:40.598Z,26.57
2022-08-19T12:37:08.777Z,26.70
2022-08-19T12:39:38.875Z,26.20
2022-08-19T12:42:09.726Z,25.63
2022-08-19T12:44:38.070Z,25.40
2022-08-19T12:47:06.905Z,25.30
2022-08-19T12:49:53.339Z,25.17
2022-08-19T12:52:24.840Z,24.83
2022-08-19T12:54:53.885Z,25.67
2022-08-19T12:57:32.866Z,26.17
2022-08-19T13:00:05.579Z,25.13
2022-08-19T13:02:38.535Z,25.83
2022-08-19T13:05:10.911Z,25.43
2022-08-19T13:07:39.372Z,25.90
2022-08-19T13:10:09.622Z,25.67
2022-08-19T13:12:39.130Z,26.47
2022-08-19T13:15:11.271Z,24.23
2022-08-19T13:17:40.700Z,25.17
2022-08-19T13:20:10.255Z,26.20
2022-08-19T13:22:38.497Z,25.47
2022-08-19T13:25:07.974Z,24.33
2022-08-19T13:27:36.374Z,23.57
2022-08-19T13:30:37.406Z,23.80
2022-08-19T13:33:16.466Z,23.40
2022-08-19T13:35:48.038Z,22.67
2022-08-19T13:38:19.062Z,21.80
2022-08-19T13:40:47.358Z,23.03
2022-08-19T13:43:22.728Z,22.50
2022-08-19T13:45:56.926Z,21.80
2022-08-19T13:48:27.516Z,21.80
2022-08-19T13:50:55.534Z,21.50
2022-08-19T13:53:23.428Z,23.20
2022-08-19T13:55:52.030Z,22.43
2022-08-19T13:58:19.864Z,21.53
2022-08-19T14:00:49.155Z,21.20
2022-08-19T14:03:18.432Z,21.07
2022-08-19T14:05:47.527Z,21.20
2022-08-19T14:08:15.651Z,19.80
2022-08-19T14:10:45.379Z,20.73
2022-08-19T14:13:16.772Z,19.83
2022-08-19T14:15:44.781Z,20.50
2022-08-19T14:18:12.637Z,19.60
2022-08-19T14:20:42.113Z,20.17
2022-08-19T14:23:10.098Z,19.33
2022-08-19T14:25:38.592Z,19.10
2022-08-19T14:28:07.635Z,18.60
2022-08-19T14:30:38.029Z,18.33
2022-08-19T14:33:08.000Z,18.93
2022-08-19T14:35:36.294Z,18.87
2022-08-19T14:38:07.021Z,18.63
2022-08-19T14:40:35.597Z,18.87
2022-08-19T14:43:06.062Z,18.50
2022-08-19T14:45:36.897Z,18.33
2022-08-19T14:48:06.096Z,17.57
2022-08-19T14:50:35.097Z,17.47
2022-08-19T14:53:11.903Z,17.70
2022-08-19T14:55:43.731Z,17.87
2022-08-19T14:58:29.783Z,17.83
2022-08-19T15:01:00.865Z,16.27
2022-08-19T15:03:29.079Z,17.27
2022-08-19T15:05:58.201Z,16.80
2022-08-19T15:08:28.701Z,17.37
2022-08-19T15:10:57.152Z,16.13
2022-08-19T15:13:25.962Z,16.43
2022-08-19T15:15:54.001Z,17.23
2022-08-19T15:18:22.604Z,16.90
2022-08-19T15:20:50.588Z,16.43
2022-08-19T15:23:22.120Z,14.90
2022-08-19T15:25:54.332Z,14.93
2022-08-19T15:28:22.661Z,14.40
2022-08-19T15:30:50.894Z,14.17
2022-08-19T15:33:20.481Z,14.93
2022-08-19T15:35:50.847Z,14.50
2022-08-19T15:38:21.914Z,13.70
2022-08-19T15:40:52.307Z,13.73
2022-08-19T15:43:23.092Z,14.00
2022-08-19T15:45:50.970Z,14.23
2022-08-19T15:48:18.845Z,13.03
2022-08-19T15:50:46.758Z,13.83
2022-08-19T15:53:14.566Z,13.63
2022-08-19T15:55:48.200Z,13.40
2022-08-19T15:58:35.092Z,13.67
2022-08-19T16:01:26.841Z,14.17
2022-08-19T16:04:15.604Z,14.70
2022-08-19T16:06:47.569Z,14.50
2022-08-19T16:09:16.388Z,15.20
2022-08-19T16:11:46.429Z,15.07
2022-08-19T16:14:16.557Z,15.00
2022-08-19T16:16:46.894Z,14.20
2022-08-19T16:19:16.746Z,13.60
2022-08-19T16:21:46.062Z,13.57
2022-08-19T16:24:15.100Z,14.40
2022-08-19T16:26:44.352Z,14.50
2022-08-19T16:29:13.565Z,14.33
2022-08-19T16:31:44.944Z,14.57
2022-08-19T16:34:14.163Z,13.50
2022-08-19T16:36:43.482Z,13.80
2022-08-19T16:39:12.260Z,13.97
2022-08-19T16:41:40.954Z,13.03
2022-08-19T16:44:10.928Z,14.57
2022-08-19T16:46:41.554Z,13.70
2022-08-19T16:49:13.426Z,13.10
2022-08-19T16:51:44.990Z,13.33
2022-08-19T16:54:13.028Z,14.57
2022-08-19T16:56:40.860Z,15.03
2022-08-19T16:59:08.807Z,15.07
2022-08-19T17:01:36.723Z,15.43
2022-08-19T17:04:05.163Z,17.27
2022-08-19T17:06:36.581Z,18.10
2022-08-19T17:09:07.869Z,18.53
2022-08-19T17:11:36.585Z,19.27
2022-08-19T17:14:05.952Z,18.90
2022-08-19T17:16:36.181Z,19.83
2022-08-19T17:19:06.769Z,18.57
2022-08-19T17:21:37.588Z,18.63
2022-08-19T17:24:07.342Z,19.43
2022-08-19T17:26:35.864Z,18.77
2022-08-19T17:29:04.550Z,20.45
2022-08-19T17:31:33.262Z,18.23
2022-08-19T17:34:01.521Z,20.43
2022-08-19T17:36:33.954Z,20.53
2022-08-19T17:39:05.434Z,19.53
2022-08-19T17:41:34.912Z,19.40
2022-08-19T17:44:03.373Z,19.50
2022-08-19T17:46:31.326Z,19.53
2022-08-19T17:48:59.338Z,20.60
2022-08-19T17:51:41.980Z,20.37
2022-08-19T17:54:13.982Z,21.40
2022-08-19T17:56:42.226Z,19.63
2022-08-19T17:59:14.242Z,21.43
2022-08-19T18:01:53.112Z,22.10
2022-08-19T18:04:23.951Z,22.07
2022-08-19T18:06:54.059Z,23.03
2022-08-19T18:09:26.178Z,21.73
2022-08-19T18:11:55.495Z,22.00
2022-08-19T18:14:33.028Z,23.40
2022-08-19T18:17:02.983Z,22.40
2022-08-19T18:19:42.208Z,22.37
2022-08-19T18:22:12.339Z,21.93
2022-08-19T18:24:42.201Z,22.30
2022-08-19T18:27:10.446Z,21.27
2022-08-19T18:29:40.073Z,21.40
2022-08-19T18:32:12.422Z,21.43
2022-08-19T18:34:41.030Z,20.43
2022-08-19T18:37:08.786Z,20.17
2022-08-19T18:39:54.957Z,19.47
2022-08-19T18:42:41.843Z,20.43
2022-08-19T18:45:27.922Z,18.80
2022-08-19T18:48:26.876Z,19.20
2022-08-19T18:51:00.116Z,18.27
2022-08-19T18:53:29.846Z,19.37
2022-08-19T18:55:57.922Z,19.67
2022-08-19T18:58:32.148Z,19.10
2022-08-19T19:01:00.661Z,20.23
2022-08-19T19:03:28.858Z,19.00
2022-08-19T19:05:56.822Z,17.50
2022-08-19T19:08:26.734Z,18.40
2022-08-19T19:10:56.778Z,19.10
2022-08-19T19:13:24.643Z,15.37
2022-08-19T19:15:54.374Z,18.27
2022-08-19T19:18:22.184Z,18.10
2022-08-19T19:20:49.978Z,18.73
2022-08-19T19:23:17.845Z,19.37
2022-08-19T19:25:50.187Z,19.80
2022-08-19T19:28:25.039Z,19.33
2022-08-19T19:30:57.517Z,19.00
2022-08-19T19:33:25.728Z,19.10
2022-08-19T19:35:53.509Z,19.73
2022-08-19T19:38:21.474Z,19.33
2022-08-19T19:40:49.306Z,19.20
2022-08-19T19:43:18.131Z,20.90
2022-08-19T19:45:48.160Z,19.87
2022-08-19T19:48:17.547Z,21.17
2022-08-19T19:50:53.997Z,20.30
2022-08-19T19:53:25.956Z,19.97
2022-08-19T19:55:54.821Z,20.27
2022-08-19T19:58:28.507Z,19.80
2022-08-19T20:00:57.580Z,20.57
2022-08-19T20:03:26.949Z,21.23
2022-08-19T20:05:55.084Z,21.07
2022-08-19T20:08:40.364Z,21.27
2022-08-19T20:11:08.542Z,20.70
2022-08-19T20:13:39.490Z,20.33
2022-08-19T20:16:07.862Z,20.93
2022-08-19T20:18:38.791Z,20.73
2022-08-19T20:21:07.076Z,20.43
2022-08-19T20:23:35.138Z,20.77
2022-08-19T20:26:03.029Z,21.37
2022-08-19T20:28:31.916Z,20.93
2022-08-19T20:31:00.252Z,21.87
2022-08-19T20:33:30.070Z,22.00
2022-08-19T20:35:59.442Z,21.93
2022-08-19T20:38:27.321Z,21.33
2022-08-19T20:40:55.229Z,21.77
2022-08-19T20:43:23.069Z,23.10
2022-08-19T20:45:50.934Z,23.03
2022-08-19T20:48:18.769Z,24.30
2022-08-19T20:50:47.610Z,24.00
2022-08-19T20:53:22.829Z,23.13
2022-08-19T20:55:51.657Z,22.43
2022-08-19T20:58:22.209Z,22.73
2022-08-19T21:00:52.342Z,22.47
2022-08-19T21:03:22.359Z,20.97
2022-08-19T21:05:50.558Z,21.83
2022-08-19T21:08:19.970Z,21.00
2022-08-19T21:10:49.236Z,21.07
2022-08-19T21:13:18.025Z,21.20
2022-08-19T21:15:46.158Z,22.67
2022-08-19T21:18:16.155Z,22.00
2022-08-19T21:20:45.089Z,21.40
2022-08-19T21:23:15.802Z,19.93
2022-08-19T21:25:54.254Z,21.60
2022-08-19T21:28:34.432Z,21.90
2022-08-19T21:31:05.220Z,23.13
2022-08-19T21:33:33.173Z,23.77
2022-08-19T21:36:02.484Z,23.93
2022-08-19T21:38:30.562Z,24.10
2022-08-19T21:41:00.244Z,22.43
2022-08-19T21:43:33.748Z,23.77
2022-08-19T21:46:01.685Z,23.70
2022-08-19T21:48:29.612Z,24.57
2022-08-19T21:50:57.422Z,26.17
2022-08-19T21:53:25.669Z,24.07
2022-08-19T21:56:03.618Z,25.57
2022-08-19T21:58:31.497Z,24.63
2022-08-19T22:00:59.869Z,24.27
2022-08-19T22:03:28.211Z,24.90
2022-08-19T22:05:56.092Z,24.90
2022-08-19T22:08:23.878Z,25.27
2022-08-19T22:10:52.531Z,24.97
2022-08-19T22:13:21.751Z,23.57
2022-08-19T22:15:51.802Z,25.53
2022-08-19T22:18:19.749Z,26.20
2022-08-19T22:20:48.743Z,25.73
2022-08-19T22:23:16.562Z,27.50
2022-08-19T22:25:46.746Z,27.37
2022-08-19T22:28:19.071Z,26.50
2022-08-19T22:30:57.352Z,28.73
2022-08-19T22:33:27.566Z,27.27
2022-08-19T22:35:55.629Z,28.50
2022-08-19T22:38:23.934Z,28.70
2022-08-19T22:40:53.706Z,29.97
2022-08-19T22:43:23.923Z,28.67
2022-08-19T22:45:53.528Z,27.37
2022-08-19T22:48:25.445Z,28.17
2022-08-19T22:51:11.942Z,26.90
2022-08-19T22:53:42.113Z,27.80
2022-08-19T22:56:15.168Z,28.20
2022-08-19T22:58:43.661Z,27.77
2022-08-19T23:01:14.704Z,27.77
2022-08-19T23:03:56.515Z,27.77
2022-08-19T23:06:29.749Z,26.97
2022-08-19T23:09:02.162Z,28.83
2022-08-19T23:11:35.487Z,27.60
2022-08-19T23:14:04.879Z,28.50
2022-08-19T23:16:35.304Z,29.17
2022-08-19T23:19:04.838Z,29.50
2022-08-19T23:21:32.734Z,26.83
2022-08-19T23:24:00.667Z,27.67
2022-08-19T23:26:30.708Z,27.90
2022-08-19T23:29:21.870Z,27.17
2022-08-19T23:31:49.815Z,29.00
2022-08-19T23:34:19.047Z,28.10
2022-08-19T23:36:48.365Z,28.67
2022-08-19T23:39:16.216Z,28.17
2022-08-19T23:41:44.081Z,27.50
2022-08-19T23:44:14.516Z,28.47
2022-08-19T23:46:54.621Z,27.27
2022-08-19T23:49:25.376Z,29.17
2022-08-19T23:51:54.253Z,28.33
2022-08-19T23:54:22.883Z,29.40
2022-08-19T23:57:14.645Z,29.33
2022-08-19T23:59:44.984Z,29.93
